地図

経路データ

SID SEASON NUMBER BASIN SUBBASIN NAME ISO_TIME NATURE LAT LON WMO_WIND WMO_PRES WMO_AGENCY TRACK_TYPE DIST2LAND LANDFALL IFLAG USA_AGENCY USA_ATCF_ID USA_LAT USA_LON USA_RECORD USA_STATUS USA_WIND USA_PRES USA_SSHS USA_R34_NE USA_R34_SE USA_R34_SW USA_R34_NW USA_R50_NE USA_R50_SE USA_R50_SW USA_R50_NW USA_R64_NE USA_R64_SE USA_R64_SW USA_R64_NW USA_POCI USA_ROCI USA_RMW USA_EYE TOKYO_LAT TOKYO_LON TOKYO_GRADE TOKYO_WIND TOKYO_PRES TOKYO_R50_DIR TOKYO_R50_LONG TOKYO_R50_SHORT TOKYO_R30_DIR TOKYO_R30_LONG TOKYO_R30_SHORT TOKYO_LAND CMA_LAT CMA_LON CMA_CAT CMA_WIND CMA_PRES HKO_LAT HKO_LON HKO_CAT HKO_WIND HKO_PRES NEWDELHI_LAT NEWDELHI_LON NEWDELHI_GRADE NEWDELHI_WIND NEWDELHI_PRES NEWDELHI_CI NEWDELHI_DP NEWDELHI_POCI REUNION_LAT REUNION_LON REUNION_TYPE REUNION_WIND REUNION_PRES REUNION_TNUM REUNION_CI REUNION_RMW REUNION_R34_NE REUNION_R34_SE REUNION_R34_SW REUNION_R34_NW REUNION_R50_NE REUNION_R50_SE REUNION_R50_SW REUNION_R50_NW REUNION_R64_NE REUNION_R64_SE REUNION_R64_SW REUNION_R64_NW BOM_LAT BOM_LON BOM_TYPE BOM_WIND BOM_PRES BOM_TNUM BOM_CI BOM_RMW BOM_R34_NE BOM_R34_SE BOM_R34_SW BOM_R34_NW BOM_R50_NE BOM_R50_SE BOM_R50_SW BOM_R50_NW BOM_R64_NE BOM_R64_SE BOM_R64_SW BOM_R64_NW BOM_ROCI BOM_POCI BOM_EYE BOM_POS_METHOD BOM_PRES_METHOD NADI_LAT NADI_LON NADI_CAT NADI_WIND NADI_PRES WELLINGTON_LAT WELLINGTON_LON WELLINGTON_WIND WELLINGTON_PRES DS824_LAT DS824_LON DS824_STAGE DS824_WIND DS824_PRES TD9636_LAT TD9636_LON TD9636_STAGE TD9636_WIND TD9636_PRES TD9635_LAT TD9635_LON TD9635_WIND TD9635_PRES TD9635_ROCI NEUMANN_LAT NEUMANN_LON NEUMANN_CLASS NEUMANN_WIND NEUMANN_PRES MLC_LAT MLC_LON MLC_CLASS MLC_WIND MLC_PRES USA_GUST BOM_GUST BOM_GUST_PER REUNION_GUST REUNION_GUST_PER USA_SEAHGT USA_SEARAD_NE USA_SEARAD_SE USA_SEARAD_SW USA_SEARAD_NW STORM_SPEED STORM_DIR
2021133N07130 2021 21 WP MM NOT_NAMED 2021-05-12 18:00:00 TS 7.10000 129.800 PROVISIONAL 354 309 O_____________ tcgp WP032021 7.10000 129.800 TD 30 1001 -1 1006 100 15 9 285
2021133N07130 2021 21 WP MM NOT_NAMED 2021-05-12 21:00:00 TS 7.21003 129.373 PROVISIONAL 309 264 P_____________ WP032021 7.14964 129.477 TD 32 1002 -1 1006 158 14 9 282
2021133N07130 2021 21 WP MM NOT_NAMED 2021-05-13 00:00:00 TS 7.27500 128.950 PROVISIONAL 264 209 O_____________ tcvitals WP032021 7.20000 129.100 TD 35 1004 0 40 20 20 35 1006 216 14 9 277
2021133N07130 2021 21 WP MM NOT_NAMED 2021-05-13 03:00:00 TS 7.32228 128.443 PROVISIONAL 198 154 P_____________ WP032021 7.25149 128.634 TD -1 42 27 27 40 1006 153 14 10 275
2021133N07130 2021 21 WP MM NOT_NAMED 2021-05-13 06:00:00 TS 7.35849 127.940 PROVISIONAL 143 88 O_____________ tcvitals WP032021 7.30314 128.126 TD -1 45 35 35 45 1006 90 15 10 275
2021133N07130 2021 21 WP MM NOT_NAMED 2021-05-13 09:00:00 TS 7.41793 127.408 PROVISIONAL 88 33 P_____________ WP032021 7.34659 127.667 TD -1 1006 90 15 11 277
2021133N07130 2021 21 WP MM NOT_NAMED 2021-05-13 12:00:00 TS 7.48085 126.870 PROVISIONAL 33 0 O_____________ tcvitals WP032021 7.40424 127.151 TD -1 1006 90 15 11 277
2021133N07130 2021 21 WP MM NOT_NAMED 2021-05-13 15:00:00 TS 7.54992 126.307 PROVISIONAL 0 0 P_____________ WP032021 7.50230 126.485 TD -1 1006 90 15 11 276
2021133N07130 2021 21 WP MM NOT_NAMED 2021-05-13 18:00:00 TS 7.60000 125.800 PROVISIONAL 0 0 O_____________ tcgp WP032021 7.60000 125.800 TD 25 1004 -1 1006 90 15 11 275
2021133N07130 2021 21 WP MM NOT_NAMED 2021-05-13 21:00:00 TS 7.64249 125.250 PROVISIONAL 0 0 P_____________ WP032021 7.64956 125.224 TD 25 1004 -1 1006 67 17 11 275
2021133N07130 2021 21 WP MM NOT_NAMED 2021-05-14 00:00:00 TS 7.70000 124.700 PROVISIONAL 0 0 O_____________ tcgp WP032021 7.70000 124.700 TD 25 1005 -1 1007 45 20 11 278
2021133N07130 2021 21 WP MM NOT_NAMED 2021-05-14 03:00:00 TS 7.78489 124.200 PROVISIONAL 0 0 P_____________ WP032021 7.78489 124.200 TD 25 1005 -1 1007 45 20 10 281
2021133N07130 2021 21 WP MM NOT_NAMED 2021-05-14 06:00:00 TS 7.90000 123.700 PROVISIONAL 0 0 O_____________ tcgp WP032021 7.90000 123.700 TD 25 1005 -1 1007 45 20 11 284
2021133N07130 2021 21 WP MM NOT_NAMED 2021-05-14 09:00:00 TS 8.05001 123.143 PROVISIONAL 0 0 P_____________ WP032021 8.05001 123.143 TD 25 1005 -1 1007 45 20 11 285
2021133N07130 2021 21 WP MM NOT_NAMED 2021-05-14 12:00:00 TS 8.20000 122.600 PROVISIONAL 11 11 O_____________ tcgp WP032021 8.20000 122.600 TD 25 1005 -1 1007 45 20 10 284
2021133N07130 2021 21 WP MM NOT_NAMED 2021-05-14 15:00:00 TS 8.29989 122.135 PROVISIONAL 35 35 P_____________ WP032021 8.29989 122.135 TD 25 1004 -1 1007 45 20 9 283
2021133N07130 2021 21 WP MM NOT_NAMED 2021-05-14 18:00:00 TS 8.40000 121.700 PROVISIONAL 71 71 O_____________ tcgp WP032021 8.40000 121.700 TD 25 1004 -1 1007 45 20 9 286
2021133N07130 2021 21 WP MM NOT_NAMED 2021-05-14 21:00:00 TS 8.54236 121.272 PROVISIONAL 113 113 P_____________ WP032021 8.54236 121.272 TD 25 1004 -1 1007 45 20 9 289
2021133N07130 2021 21 WP MM NOT_NAMED 2021-05-15 00:00:00 TS 8.70000 120.800 PROVISIONAL 172 172 O_____________ tcgp WP032021 8.70000 120.800 TD 25 1005 -1 1007 45 20 11 284
2021133N07130 2021 21 WP MM NOT_NAMED 2021-05-15 03:00:00 TS 8.78993 120.237 PROVISIONAL 182 117 P_____________ WP032021 8.78993 120.237 TD 22 1006 -1 1007 45 20 12 284
2021133N07130 2021 21 WP MM NOT_NAMED 2021-05-15 06:00:00 NR 9.00000 119.600 PROVISIONAL 117 39 O_____________ tcgp WP032021 9.00000 119.600 DB 20 1007 -3 1007 45 20 15 297
2021133N07130 2021 21 WP MM NOT_NAMED 2021-05-15 09:00:00 NR 9.47029 118.913 PROVISIONAL 24 0 P_____________ WP032021 9.47029 118.913 DB 20 1007 -3 1007 45 20 18 309
2021133N07130 2021 21 WP MM NOT_NAMED 2021-05-15 12:00:00 NR 10.1000 118.200 PROVISIONAL 55 O_____________ tcgp WP032021 10.1000 118.200 DB 20 1007 -3 1007 45 20 19 312

デジタル台風データ・検索

IBTrACS Databaseについて

本データベースは、米国NOAAが公開する1842年以降の世界の熱帯低気圧のベストトラックデータアーカイブInternational Best Track Archive for Climate Stewardship (IBTrACS)を、ウェブで閲覧しやすい形式に変換したものです。

最終更新日:2021-12-03